sensor_id;sensor_type;location;lat;lon;timestamp;temperature;humidity
30288;DHT22;17103;48.316;11.558;2023-12-07T00:02:11;6.70;51.70
30288;DHT22;17103;48.316;11.558;2023-12-07T00:04:37;6.70;51.60
30288;DHT22;17103;48.316;11.558;2023-12-07T00:07:03;6.70;51.50
30288;DHT22;17103;48.316;11.558;2023-12-07T00:09:28;6.70;51.60
30288;DHT22;17103;48.316;11.558;2023-12-07T00:11:54;6.70;51.50
30288;DHT22;17103;48.316;11.558;2023-12-07T00:14:19;6.70;51.40
30288;DHT22;17103;48.316;11.558;2023-12-07T00:16:46;6.70;51.30
30288;DHT22;17103;48.316;11.558;2023-12-07T00:19:11;6.80;51.40
30288;DHT22;17103;48.316;11.558;2023-12-07T00:21:36;6.80;51.30
30288;DHT22;17103;48.316;11.558;2023-12-07T00:24:02;6.80;51.20
30288;DHT22;17103;48.316;11.558;2023-12-07T00:26:28;6.80;51.20
30288;DHT22;17103;48.316;11.558;2023-12-07T00:28:53;6.70;51.10
30288;DHT22;17103;48.316;11.558;2023-12-07T00:31:19;7.90;51.90
30288;DHT22;17103;48.316;11.558;2023-12-07T00:33:45;6.70;50.90
30288;DHT22;17103;48.316;11.558;2023-12-07T00:36:11;6.70;50.90
30288;DHT22;17103;48.316;11.558;2023-12-07T00:38:38;6.70;50.80
30288;DHT22;17103;48.316;11.558;2023-12-07T00:41:03;6.60;50.70
30288;DHT22;17103;48.316;11.558;2023-12-07T00:43:29;6.60;50.60
30288;DHT22;17103;48.316;11.558;2023-12-07T00:45:54;6.60;50.50
30288;DHT22;17103;48.316;11.558;2023-12-07T00:48:20;6.50;50.30
30288;DHT22;17103;48.316;11.558;2023-12-07T00:50:45;6.50;50.30
30288;DHT22;17103;48.316;11.558;2023-12-07T00:53:12;6.50;50.20
30288;DHT22;17103;48.316;11.558;2023-12-07T00:55:38;6.70;50.90
30288;DHT22;17103;48.316;11.558;2023-12-07T00:58:05;6.40;50.20
30288;DHT22;17103;48.316;11.558;2023-12-07T01:00:31;6.80;50.50
30288;DHT22;17103;48.316;11.558;2023-12-07T01:02:56;6.30;50.20
30288;DHT22;17103;48.316;11.558;2023-12-07T01:05:21;6.20;50.40
30288;DHT22;17103;48.316;11.558;2023-12-07T01:07:47;6.20;50.30
30288;DHT22;17103;48.316;11.558;2023-12-07T01:10:12;6.20;50.40
30288;DHT22;17103;48.316;11.558;2023-12-07T01:12:39;6.10;50.40
30288;DHT22;17103;48.316;11.558;2023-12-07T01:15:04;6.10;50.30
30288;DHT22;17103;48.316;11.558;2023-12-07T01:17:30;6.00;50.70
30288;DHT22;17103;48.316;11.558;2023-12-07T01:19:56;5.90;50.10
30288;DHT22;17103;48.316;11.558;2023-12-07T01:22:21;5.90;50.20
30288;DHT22;17103;48.316;11.558;2023-12-07T01:24:47;5.80;50.20
30288;DHT22;17103;48.316;11.558;2023-12-07T01:27:13;5.80;50.30
30288;DHT22;17103;48.316;11.558;2023-12-07T01:29:39;5.80;50.40
30288;DHT22;17103;48.316;11.558;2023-12-07T01:32:04;5.70;50.50
30288;DHT22;17103;48.316;11.558;2023-12-07T01:34:31;5.70;50.60
30288;DHT22;17103;48.316;11.558;2023-12-07T01:36:58;5.70;50.70
30288;DHT22;17103;48.316;11.558;2023-12-07T01:39:23;5.70;50.90
30288;DHT22;17103;48.316;11.558;2023-12-07T01:41:51;5.60;50.90
30288;DHT22;17103;48.316;11.558;2023-12-07T01:44:16;5.60;50.90
30288;DHT22;17103;48.316;11.558;2023-12-07T01:46:42;5.60;50.90
30288;DHT22;17103;48.316;11.558;2023-12-07T01:49:08;5.60;51.10
30288;DHT22;17103;48.316;11.558;2023-12-07T01:51:34;5.50;51.00
30288;DHT22;17103;48.316;11.558;2023-12-07T01:54:00;5.60;51.20
30288;DHT22;17103;48.316;11.558;2023-12-07T01:56:27;5.50;51.10
30288;DHT22;17103;48.316;11.558;2023-12-07T01:58:53;5.50;51.10
30288;DHT22;17103;48.316;11.558;2023-12-07T02:01:19;5.50;51.10
30288;DHT22;17103;48.316;11.558;2023-12-07T02:03:44;5.50;51.20
30288;DHT22;17103;48.316;11.558;2023-12-07T02:06:12;5.40;51.10
30288;DHT22;17103;48.316;11.558;2023-12-07T02:08:39;5.40;51.10
30288;DHT22;17103;48.316;11.558;2023-12-07T02:11:09;5.40;51.10
30288;DHT22;17103;48.316;11.558;2023-12-07T02:13:36;5.40;51.20
30288;DHT22;17103;48.316;11.558;2023-12-07T02:16:02;5.40;51.10
30288;DHT22;17103;48.316;11.558;2023-12-07T02:18:35;5.40;51.20
30288;DHT22;17103;48.316;11.558;2023-12-07T02:21:06;5.40;51.10
30288;DHT22;17103;48.316;11.558;2023-12-07T02:23:39;5.40;51.10
30288;DHT22;17103;48.316;11.558;2023-12-07T02:26:06;5.30;51.00
30288;DHT22;17103;48.316;11.558;2023-12-07T02:28:40;5.30;51.00
30288;DHT22;17103;48.316;11.558;2023-12-07T02:31:05;5.30;51.00
30288;DHT22;17103;48.316;11.558;2023-12-07T02:33:32;5.20;50.90
30288;DHT22;17103;48.316;11.558;2023-12-07T02:35:57;5.20;50.90
30288;DHT22;17103;48.316;11.558;2023-12-07T02:38:23;5.20;50.90
30288;DHT22;17103;48.316;11.558;2023-12-07T02:40:51;5.20;50.90
30288;DHT22;17103;48.316;11.558;2023-12-07T02:43:18;5.20;51.00
30288;DHT22;17103;48.316;11.558;2023-12-07T02:45:44;5.20;51.00
30288;DHT22;17103;48.316;11.558;2023-12-07T02:48:11;5.20;50.90
30288;DHT22;17103;48.316;11.558;2023-12-07T02:53:10;5.20;50.70
30288;DHT22;17103;48.316;11.558;2023-12-07T02:58:18;5.10;50.50
30288;DHT22;17103;48.316;11.558;2023-12-07T03:00:44;5.10;50.40
30288;DHT22;17103;48.316;11.558;2023-12-07T03:03:11;5.10;50.50
30288;DHT22;17103;48.316;11.558;2023-12-07T03:05:37;5.10;50.40
30288;DHT22;17103;48.316;11.558;2023-12-07T03:08:02;5.00;50.50
30288;DHT22;17103;48.316;11.558;2023-12-07T03:12:57;5.00;50.40
30288;DHT22;17103;48.316;11.558;2023-12-07T03:15:23;4.90;50.30
30288;DHT22;17103;48.316;11.558;2023-12-07T03:17:50;4.90;50.30
30288;DHT22;17103;48.316;11.558;2023-12-07T03:20:15;4.90;50.30
30288;DHT22;17103;48.316;11.558;2023-12-07T03:22:42;4.80;50.40
30288;DHT22;17103;48.316;11.558;2023-12-07T03:25:10;4.80;50.40
30288;DHT22;17103;48.316;11.558;2023-12-07T03:27:36;4.80;50.50
30288;DHT22;17103;48.316;11.558;2023-12-07T03:30:01;4.70;50.50
30288;DHT22;17103;48.316;11.558;2023-12-07T03:32:27;4.70;50.50
30288;DHT22;17103;48.316;11.558;2023-12-07T03:34:53;4.70;50.50
30288;DHT22;17103;48.316;11.558;2023-12-07T03:37:18;4.70;50.70
30288;DHT22;17103;48.316;11.558;2023-12-07T03:39:44;4.70;50.80
30288;DHT22;17103;48.316;11.558;2023-12-07T03:42:09;4.60;50.80
30288;DHT22;17103;48.316;11.558;2023-12-07T03:44:35;4.60;50.80
30288;DHT22;17103;48.316;11.558;2023-12-07T03:47:01;4.60;50.80
30288;DHT22;17103;48.316;11.558;2023-12-07T03:49:26;4.60;50.60
30288;DHT22;17103;48.316;11.558;2023-12-07T03:51:53;4.60;50.70
30288;DHT22;17103;48.316;11.558;2023-12-07T03:54:19;4.50;50.50
30288;DHT22;17103;48.316;11.558;2023-12-07T03:56:45;4.50;50.50
30288;DHT22;17103;48.316;11.558;2023-12-07T03:59:10;4.50;50.60
30288;DHT22;17103;48.316;11.558;2023-12-07T04:01:36;4.40;50.60
30288;DHT22;17103;48.316;11.558;2023-12-07T04:04:01;4.40;50.70
30288;DHT22;17103;48.316;11.558;2023-12-07T04:06:31;4.30;50.70
30288;DHT22;17103;48.316;11.558;2023-12-07T04:08:56;4.30;50.90
30288;DHT22;17103;48.316;11.558;2023-12-07T04:11:23;4.30;50.90
30288;DHT22;17103;48.316;11.558;2023-12-07T04:13:48;4.30;50.90
30288;DHT22;17103;48.316;11.558;2023-12-07T04:16:17;4.30;51.00
30288;DHT22;17103;48.316;11.558;2023-12-07T04:18:42;4.30;51.00
30288;DHT22;17103;48.316;11.558;2023-12-07T04:21:08;4.30;51.10
30288;DHT22;17103;48.316;11.558;2023-12-07T04:23:38;4.40;51.10
30288;DHT22;17103;48.316;11.558;2023-12-07T04:26:03;4.30;51.00
30288;DHT22;17103;48.316;11.558;2023-12-07T04:28:29;4.30;50.90
30288;DHT22;17103;48.316;11.558;2023-12-07T04:30:56;4.30;50.90
30288;DHT22;17103;48.316;11.558;2023-12-07T04:33:22;4.30;50.80
30288;DHT22;17103;48.316;11.558;2023-12-07T04:35:53;4.20;50.70
30288;DHT22;17103;48.316;11.558;2023-12-07T04:38:19;4.20;50.70
30288;DHT22;17103;48.316;11.558;2023-12-07T04:40:46;4.20;50.60
30288;DHT22;17103;48.316;11.558;2023-12-07T04:43:14;4.20;50.60
30288;DHT22;17103;48.316;11.558;2023-12-07T04:45:41;4.20;50.60
30288;DHT22;17103;48.316;11.558;2023-12-07T04:48:08;4.10;50.50
30288;DHT22;17103;48.316;11.558;2023-12-07T04:50:33;4.10;50.60
30288;DHT22;17103;48.316;11.558;2023-12-07T04:53:01;4.10;50.70
30288;DHT22;17103;48.316;11.558;2023-12-07T04:55:26;4.10;50.80
30288;DHT22;17103;48.316;11.558;2023-12-07T04:57:53;4.20;50.80
30288;DHT22;17103;48.316;11.558;2023-12-07T05:00:27;4.00;50.70
30288;DHT22;17103;48.316;11.558;2023-12-07T05:03:04;3.90;50.70
30288;DHT22;17103;48.316;11.558;2023-12-07T05:05:30;3.90;50.80
30288;DHT22;17103;48.316;11.558;2023-12-07T05:07:55;3.90;50.80
30288;DHT22;17103;48.316;11.558;2023-12-07T05:10:21;3.90;50.80
30288;DHT22;17103;48.316;11.558;2023-12-07T05:12:48;3.90;50.80
30288;DHT22;17103;48.316;11.558;2023-12-07T05:15:16;3.90;50.80
30288;DHT22;17103;48.316;11.558;2023-12-07T05:17:42;3.90;50.90
30288;DHT22;17103;48.316;11.558;2023-12-07T05:20:08;3.90;50.80
30288;DHT22;17103;48.316;11.558;2023-12-07T05:22:34;3.90;51.40
30288;DHT22;17103;48.316;11.558;2023-12-07T05:25:02;3.80;50.80
30288;DHT22;17103;48.316;11.558;2023-12-07T05:27:29;3.80;50.70
30288;DHT22;17103;48.316;11.558;2023-12-07T05:29:55;3.80;50.80
30288;DHT22;17103;48.316;11.558;2023-12-07T05:32:20;3.80;50.80
30288;DHT22;17103;48.316;11.558;2023-12-07T05:34:51;3.80;50.60
30288;DHT22;17103;48.316;11.558;2023-12-07T05:37:16;3.80;50.80
30288;DHT22;17103;48.316;11.558;2023-12-07T05:39:43;3.80;50.80
30288;DHT22;17103;48.316;11.558;2023-12-07T05:42:11;3.80;50.70
30288;DHT22;17103;48.316;11.558;2023-12-07T05:44:36;3.80;50.70
30288;DHT22;17103;48.316;11.558;2023-12-07T05:47:02;3.80;50.60
30288;DHT22;17103;48.316;11.558;2023-12-07T05:49:32;3.80;50.70
30288;DHT22;17103;48.316;11.558;2023-12-07T05:52:05;3.80;50.80
30288;DHT22;17103;48.316;11.558;2023-12-07T05:54:32;3.80;50.70
30288;DHT22;17103;48.316;11.558;2023-12-07T05:56:58;3.80;50.60
30288;DHT22;17103;48.316;11.558;2023-12-07T05:59:36;3.70;50.50
30288;DHT22;17103;48.316;11.558;2023-12-07T06:02:24;3.80;50.60
30288;DHT22;17103;48.316;11.558;2023-12-07T06:04:50;3.70;50.50
30288;DHT22;17103;48.316;11.558;2023-12-07T06:07:16;3.80;50.70
30288;DHT22;17103;48.316;11.558;2023-12-07T06:09:45;3.80;50.60
30288;DHT22;17103;48.316;11.558;2023-12-07T06:12:28;3.70;50.40
30288;DHT22;17103;48.316;11.558;2023-12-07T06:15:00;3.70;50.40
30288;DHT22;17103;48.316;11.558;2023-12-07T06:17:34;3.70;50.50
30288;DHT22;17103;48.316;11.558;2023-12-07T06:20:03;3.70;50.50
30288;DHT22;17103;48.316;11.558;2023-12-07T06:22:28;3.70;50.70
30288;DHT22;17103;48.316;11.558;2023-12-07T06:25:03;3.70;50.70
30288;DHT22;17103;48.316;11.558;2023-12-07T06:27:28;3.70;50.50
30288;DHT22;17103;48.316;11.558;2023-12-07T06:32:31;3.70;50.30
30288;DHT22;17103;48.316;11.558;2023-12-07T06:34:59;3.70;50.40
30288;DHT22;17103;48.316;11.558;2023-12-07T06:37:24;3.60;50.10
30288;DHT22;17103;48.316;11.558;2023-12-07T06:39:50;3.70;50.50
30288;DHT22;17103;48.316;11.558;2023-12-07T06:42:17;3.60;50.80
30288;DHT22;17103;48.316;11.558;2023-12-07T06:47:37;3.60;50.10
30288;DHT22;17103;48.316;11.558;2023-12-07T06:50:06;3.60;50.10
30288;DHT22;17103;48.316;11.558;2023-12-07T06:52:41;3.60;50.10
30288;DHT22;17103;48.316;11.558;2023-12-07T06:55:07;3.60;50.10
30288;DHT22;17103;48.316;11.558;2023-12-07T06:57:36;3.60;50.20
30288;DHT22;17103;48.316;11.558;2023-12-07T07:00:02;4.50;50.70
30288;DHT22;17103;48.316;11.558;2023-12-07T07:02:31;3.70;50.20
30288;DHT22;17103;48.316;11.558;2023-12-07T07:04:56;3.70;50.10
30288;DHT22;17103;48.316;11.558;2023-12-07T07:07:24;3.70;50.40
30288;DHT22;17103;48.316;11.558;2023-12-07T07:09:49;3.70;50.10
30288;DHT22;17103;48.316;11.558;2023-12-07T07:12:16;4.40;50.50
30288;DHT22;17103;48.316;11.558;2023-12-07T07:14:41;3.70;50.00
30288;DHT22;17103;48.316;11.558;2023-12-07T07:17:08;3.70;49.90
30288;DHT22;17103;48.316;11.558;2023-12-07T07:19:33;3.70;49.90
30288;DHT22;17103;48.316;11.558;2023-12-07T07:22:01;3.70;49.90
30288;DHT22;17103;48.316;11.558;2023-12-07T07:24:32;3.70;49.90
30288;DHT22;17103;48.316;11.558;2023-12-07T07:29:31;3.80;49.90
30288;DHT22;17103;48.316;11.558;2023-12-07T07:31:58;3.80;49.90
30288;DHT22;17103;48.316;11.558;2023-12-07T07:34:25;3.80;49.70
30288;DHT22;17103;48.316;11.558;2023-12-07T07:36:51;3.70;49.70
30288;DHT22;17103;48.316;11.558;2023-12-07T07:39:17;3.80;49.50
30288;DHT22;17103;48.316;11.558;2023-12-07T07:41:43;3.80;49.60
30288;DHT22;17103;48.316;11.558;2023-12-07T07:44:08;3.80;49.50
30288;DHT22;17103;48.316;11.558;2023-12-07T07:46:35;3.70;49.80
30288;DHT22;17103;48.316;11.558;2023-12-07T07:49:01;3.70;49.40
30288;DHT22;17103;48.316;11.558;2023-12-07T07:54:32;3.70;49.40
30288;DHT22;17103;48.316;11.558;2023-12-07T07:57:05;3.70;49.30
30288;DHT22;17103;48.316;11.558;2023-12-07T08:02:42;3.70;49.40
30288;DHT22;17103;48.316;11.558;2023-12-07T08:05:08;3.70;49.40
30288;DHT22;17103;48.316;11.558;2023-12-07T08:10:38;3.60;49.40
30288;DHT22;17103;48.316;11.558;2023-12-07T08:13:04;3.60;49.50
30288;DHT22;17103;48.316;11.558;2023-12-07T08:15:30;3.70;49.70
30288;DHT22;17103;48.316;11.558;2023-12-07T08:17:56;3.70;49.70
30288;DHT22;17103;48.316;11.558;2023-12-07T08:23:24;3.70;49.70
30288;DHT22;17103;48.316;11.558;2023-12-07T08:25:50;3.80;49.80
30288;DHT22;17103;48.316;11.558;2023-12-07T08:28:15;3.70;49.80
30288;DHT22;17103;48.316;11.558;2023-12-07T08:30:41;3.70;49.80
30288;DHT22;17103;48.316;11.558;2023-12-07T08:35:47;3.80;50.00
30288;DHT22;17103;48.316;11.558;2023-12-07T08:38:14;4.00;50.20
30288;DHT22;17103;48.316;11.558;2023-12-07T08:40:39;3.90;50.20
30288;DHT22;17103;48.316;11.558;2023-12-07T08:43:05;4.00;50.40
30288;DHT22;17103;48.316;11.558;2023-12-07T08:45:31;4.00;50.40
30288;DHT22;17103;48.316;11.558;2023-12-07T08:47:56;4.10;50.40
30288;DHT22;17103;48.316;11.558;2023-12-07T08:50:22;5.40;51.40
30288;DHT22;17103;48.316;11.558;2023-12-07T08:52:47;4.20;50.40
30288;DHT22;17103;48.316;11.558;2023-12-07T08:55:13;4.30;50.20
30288;DHT22;17103;48.316;11.558;2023-12-07T08:57:40;4.30;50.00
30288;DHT22;17103;48.316;11.558;2023-12-07T09:00:06;4.40;50.20
30288;DHT22;17103;48.316;11.558;2023-12-07T09:02:32;4.40;50.20
30288;DHT22;17103;48.316;11.558;2023-12-07T09:04:57;5.00;50.80
30288;DHT22;17103;48.316;11.558;2023-12-07T09:07:23;4.50;50.30
30288;DHT22;17103;48.316;11.558;2023-12-07T09:09:48;4.60;50.40
30288;DHT22;17103;48.316;11.558;2023-12-07T09:12:14;4.60;49.90
30288;DHT22;17103;48.316;11.558;2023-12-07T09:14:43;4.60;49.80
30288;DHT22;17103;48.316;11.558;2023-12-07T09:17:08;3.80;48.90
30288;DHT22;17103;48.316;11.558;2023-12-07T09:19:34;5.60;50.40
30288;DHT22;17103;48.316;11.558;2023-12-07T09:21:59;5.20;50.00
30288;DHT22;17103;48.316;11.558;2023-12-07T09:24:25;4.70;49.70
30288;DHT22;17103;48.316;11.558;2023-12-07T09:26:51;4.80;49.80
30288;DHT22;17103;48.316;11.558;2023-12-07T09:29:17;4.80;49.90
30288;DHT22;17103;48.316;11.558;2023-12-07T09:31:43;4.90;50.00
30288;DHT22;17103;48.316;11.558;2023-12-07T09:34:08;5.60;51.00
30288;DHT22;17103;48.316;11.558;2023-12-07T09:36:34;5.00;50.40
30288;DHT22;17103;48.316;11.558;2023-12-07T09:39:00;5.10;50.40
30288;DHT22;17103;48.316;11.558;2023-12-07T09:44:15;5.20;50.60
30288;DHT22;17103;48.316;11.558;2023-12-07T09:46:40;5.30;50.50
30288;DHT22;17103;48.316;11.558;2023-12-07T09:49:06;5.40;49.90
30288;DHT22;17103;48.316;11.558;2023-12-07T09:51:33;5.40;49.40
30288;DHT22;17103;48.316;11.558;2023-12-07T09:54:03;5.50;49.70
30288;DHT22;17103;48.316;11.558;2023-12-07T09:56:29;5.60;49.70
30288;DHT22;17103;48.316;11.558;2023-12-07T09:58:55;5.70;49.70
30288;DHT22;17103;48.316;11.558;2023-12-07T10:01:20;5.70;49.60
30288;DHT22;17103;48.316;11.558;2023-12-07T10:03:46;5.80;49.60
30288;DHT22;17103;48.316;11.558;2023-12-07T10:06:13;5.80;49.10
30288;DHT22;17103;48.316;11.558;2023-12-07T10:08:38;5.80;49.60
30288;DHT22;17103;48.316;11.558;2023-12-07T10:11:10;6.00;49.70
30288;DHT22;17103;48.316;11.558;2023-12-07T10:13:38;6.00;49.10
30288;DHT22;17103;48.316;11.558;2023-12-07T10:16:11;7.70;50.40
30288;DHT22;17103;48.316;11.558;2023-12-07T10:18:39;6.60;49.70
30288;DHT22;17103;48.316;11.558;2023-12-07T10:21:06;7.80;50.40
30288;DHT22;17103;48.316;11.558;2023-12-07T10:23:33;6.40;49.80
30288;DHT22;17103;48.316;11.558;2023-12-07T10:29:04;6.60;50.00
30288;DHT22;17103;48.316;11.558;2023-12-07T10:31:29;6.90;50.50
30288;DHT22;17103;48.316;11.558;2023-12-07T10:33:56;8.30;51.50
30288;DHT22;17103;48.316;11.558;2023-12-07T10:36:21;7.10;50.40
30288;DHT22;17103;48.316;11.558;2023-12-07T10:38:47;7.20;50.50
30288;DHT22;17103;48.316;11.558;2023-12-07T10:41:16;7.30;50.10
30288;DHT22;17103;48.316;11.558;2023-12-07T10:43:43;7.40;50.00
30288;DHT22;17103;48.316;11.558;2023-12-07T10:46:10;7.50;49.70
30288;DHT22;17103;48.316;11.558;2023-12-07T10:48:39;7.70;49.80
30288;DHT22;17103;48.316;11.558;2023-12-07T10:51:06;7.70;49.80
30288;DHT22;17103;48.316;11.558;2023-12-07T10:53:37;7.80;50.40
30288;DHT22;17103;48.316;11.558;2023-12-07T10:56:05;7.90;50.40
30288;DHT22;17103;48.316;11.558;2023-12-07T10:58:33;8.00;50.10
30288;DHT22;17103;48.316;11.558;2023-12-07T11:01:00;8.10;49.70
30288;DHT22;17103;48.316;11.558;2023-12-07T11:03:26;8.20;49.70
30288;DHT22;17103;48.316;11.558;2023-12-07T11:05:52;8.40;50.00
30288;DHT22;17103;48.316;11.558;2023-12-07T11:08:24;8.40;50.20
30288;DHT22;17103;48.316;11.558;2023-12-07T11:10:58;8.60;49.70
30288;DHT22;17103;48.316;11.558;2023-12-07T11:13:37;8.70;49.80
30288;DHT22;17103;48.316;11.558;2023-12-07T11:16:03;8.80;50.60
30288;DHT22;17103;48.316;11.558;2023-12-07T11:18:29;8.90;50.70
30288;DHT22;17103;48.316;11.558;2023-12-07T11:20:55;9.10;50.80
30288;DHT22;17103;48.316;11.558;2023-12-07T11:23:21;9.20;51.10
30288;DHT22;17103;48.316;11.558;2023-12-07T11:25:47;9.30;50.80
30288;DHT22;17103;48.316;11.558;2023-12-07T11:28:13;9.50;51.30
30288;DHT22;17103;48.316;11.558;2023-12-07T11:30:41;10.60;51.40
30288;DHT22;17103;48.316;11.558;2023-12-07T11:33:07;9.70;51.50
30288;DHT22;17103;48.316;11.558;2023-12-07T11:35:32;9.80;50.80
30288;DHT22;17103;48.316;11.558;2023-12-07T11:40:40;10.10;50.30
30288;DHT22;17103;48.316;11.558;2023-12-07T11:43:05;10.20;50.30
30288;DHT22;17103;48.316;11.558;2023-12-07T11:45:38;10.40;49.90
30288;DHT22;17103;48.316;11.558;2023-12-07T11:48:07;10.50;50.20
30288;DHT22;17103;48.316;11.558;2023-12-07T11:50:33;10.60;50.70
30288;DHT22;17103;48.316;11.558;2023-12-07T11:52:59;10.80;51.20
30288;DHT22;17103;48.316;11.558;2023-12-07T11:55:24;10.90;51.50
30288;DHT22;17103;48.316;11.558;2023-12-07T11:57:50;11.10;51.80
30288;DHT22;17103;48.316;11.558;2023-12-07T12:00:15;11.30;52.10
30288;DHT22;17103;48.316;11.558;2023-12-07T12:02:42;11.50;52.30
30288;DHT22;17103;48.316;11.558;2023-12-07T12:05:08;11.70;52.40
30288;DHT22;17103;48.316;11.558;2023-12-07T12:07:34;11.80;52.50
30288;DHT22;17103;48.316;11.558;2023-12-07T12:10:02;12.00;52.80
30288;DHT22;17103;48.316;11.558;2023-12-07T12:12:29;12.20;52.90
30288;DHT22;17103;48.316;11.558;2023-12-07T12:14:54;12.40;52.90
30288;DHT22;17103;48.316;11.558;2023-12-07T12:17:20;12.60;53.00
30288;DHT22;17103;48.316;11.558;2023-12-07T12:19:46;12.70;53.00
30288;DHT22;17103;48.316;11.558;2023-12-07T12:22:12;12.90;53.10
30288;DHT22;17103;48.316;11.558;2023-12-07T12:24:39;13.10;53.20
30288;DHT22;17103;48.316;11.558;2023-12-07T12:27:05;13.20;53.20
30288;DHT22;17103;48.316;11.558;2023-12-07T12:29:32;13.40;53.20
30288;DHT22;17103;48.316;11.558;2023-12-07T12:31:58;13.60;53.20
30288;DHT22;17103;48.316;11.558;2023-12-07T12:34:23;13.70;53.20
30288;DHT22;17103;48.316;11.558;2023-12-07T12:36:49;13.80;53.20
30288;DHT22;17103;48.316;11.558;2023-12-07T12:39:15;14.00;53.20
30288;DHT22;17103;48.316;11.558;2023-12-07T12:41:41;14.20;53.30
30288;DHT22;17103;48.316;11.558;2023-12-07T12:44:06;14.30;53.20
30288;DHT22;17103;48.316;11.558;2023-12-07T12:46:33;14.40;53.20
30288;DHT22;17103;48.316;11.558;2023-12-07T12:49:00;14.60;53.20
30288;DHT22;17103;48.316;11.558;2023-12-07T12:51:26;14.70;53.30
30288;DHT22;17103;48.316;11.558;2023-12-07T12:53:52;14.80;53.30
30288;DHT22;17103;48.316;11.558;2023-12-07T12:56:19;14.90;53.20
30288;DHT22;17103;48.316;11.558;2023-12-07T12:58:45;15.10;53.40
30288;DHT22;17103;48.316;11.558;2023-12-07T13:01:11;15.20;53.20
30288;DHT22;17103;48.316;11.558;2023-12-07T13:03:37;15.30;53.20
30288;DHT22;17103;48.316;11.558;2023-12-07T13:06:02;15.40;53.10
30288;DHT22;17103;48.316;11.558;2023-12-07T13:08:28;15.50;53.10
30288;DHT22;17103;48.316;11.558;2023-12-07T13:10:54;15.70;53.20
30288;DHT22;17103;48.316;11.558;2023-12-07T13:13:19;15.80;53.20
30288;DHT22;17103;48.316;11.558;2023-12-07T13:15:46;15.90;53.20
30288;DHT22;17103;48.316;11.558;2023-12-07T13:18:11;16.10;53.20
30288;DHT22;17103;48.316;11.558;2023-12-07T13:20:38;16.20;53.10
30288;DHT22;17103;48.316;11.558;2023-12-07T13:23:04;16.40;53.20
30288;DHT22;17103;48.316;11.558;2023-12-07T13:25:29;16.50;53.00
30288;DHT22;17103;48.316;11.558;2023-12-07T13:27:55;16.60;52.90
30288;DHT22;17103;48.316;11.558;2023-12-07T13:30:21;16.70;52.80
30288;DHT22;17103;48.316;11.558;2023-12-07T13:32:46;16.80;52.70
30288;DHT22;17103;48.316;11.558;2023-12-07T13:35:13;17.00;52.60
30288;DHT22;17103;48.316;11.558;2023-12-07T13:37:39;17.00;52.40
30288;DHT22;17103;48.316;11.558;2023-12-07T13:40:04;17.20;52.40
30288;DHT22;17103;48.316;11.558;2023-12-07T13:42:35;17.30;52.30
30288;DHT22;17103;48.316;11.558;2023-12-07T13:45:01;17.40;52.20
30288;DHT22;17103;48.316;11.558;2023-12-07T13:47:28;17.50;52.10
30288;DHT22;17103;48.316;11.558;2023-12-07T13:49:57;17.70;52.00
30288;DHT22;17103;48.316;11.558;2023-12-07T13:52:24;17.70;51.80
30288;DHT22;17103;48.316;11.558;2023-12-07T13:54:49;17.90;51.70
30288;DHT22;17103;48.316;11.558;2023-12-07T13:57:16;17.90;51.40
30288;DHT22;17103;48.316;11.558;2023-12-07T13:59:42;18.10;51.30
30288;DHT22;17103;48.316;11.558;2023-12-07T14:02:16;18.30;51.10
30288;DHT22;17103;48.316;11.558;2023-12-07T14:04:45;18.40;51.00
30288;DHT22;17103;48.316;11.558;2023-12-07T14:07:13;18.50;50.80
30288;DHT22;17103;48.316;11.558;2023-12-07T14:09:44;18.60;50.50
30288;DHT22;17103;48.316;11.558;2023-12-07T14:12:09;18.70;50.20
30288;DHT22;17103;48.316;11.558;2023-12-07T14:14:45;18.80;50.00
30288;DHT22;17103;48.316;11.558;2023-12-07T14:17:12;18.90;49.80
30288;DHT22;17103;48.316;11.558;2023-12-07T14:19:38;18.90;49.60
30288;DHT22;17103;48.316;11.558;2023-12-07T14:22:04;19.00;49.40
30288;DHT22;17103;48.316;11.558;2023-12-07T14:24:29;19.00;49.10
30288;DHT22;17103;48.316;11.558;2023-12-07T14:26:56;19.00;48.80
30288;DHT22;17103;48.316;11.558;2023-12-07T14:29:22;19.00;48.60
30288;DHT22;17103;48.316;11.558;2023-12-07T14:31:50;19.00;48.40
30288;DHT22;17103;48.316;11.558;2023-12-07T14:34:15;18.90;48.00
30288;DHT22;17103;48.316;11.558;2023-12-07T14:36:41;18.80;47.60
30288;DHT22;17103;48.316;11.558;2023-12-07T14:39:09;18.70;47.30
30288;DHT22;17103;48.316;11.558;2023-12-07T14:41:35;18.60;47.00
30288;DHT22;17103;48.316;11.558;2023-12-07T14:44:02;18.40;46.60
30288;DHT22;17103;48.316;11.558;2023-12-07T14:46:27;18.20;46.20
30288;DHT22;17103;48.316;11.558;2023-12-07T14:48:53;18.00;45.90
30288;DHT22;17103;48.316;11.558;2023-12-07T14:51:18;17.70;45.40
30288;DHT22;17103;48.316;11.558;2023-12-07T14:53:47;17.60;45.10
30288;DHT22;17103;48.316;11.558;2023-12-07T14:56:13;17.30;44.50
30288;DHT22;17103;48.316;11.558;2023-12-07T14:58:40;17.00;44.10
30288;DHT22;17103;48.316;11.558;2023-12-07T15:01:06;16.80;43.60
30288;DHT22;17103;48.316;11.558;2023-12-07T15:03:31;16.50;43.10
30288;DHT22;17103;48.316;11.558;2023-12-07T15:05:57;16.20;42.60
30288;DHT22;17103;48.316;11.558;2023-12-07T15:08:22;15.90;42.20
30288;DHT22;17103;48.316;11.558;2023-12-07T15:10:48;15.60;41.50
30288;DHT22;17103;48.316;11.558;2023-12-07T15:13:20;15.40;41.30
30288;DHT22;17103;48.316;11.558;2023-12-07T15:15:45;15.10;40.90
30288;DHT22;17103;48.316;11.558;2023-12-07T15:18:11;14.80;40.50
30288;DHT22;17103;48.316;11.558;2023-12-07T15:20:36;14.60;40.20
30288;DHT22;17103;48.316;11.558;2023-12-07T15:23:02;14.30;39.80
30288;DHT22;17103;48.316;11.558;2023-12-07T15:25:28;14.00;39.50
30288;DHT22;17103;48.316;11.558;2023-12-07T15:27:54;13.80;39.20
30288;DHT22;17103;48.316;11.558;2023-12-07T15:30:20;13.50;38.90
30288;DHT22;17103;48.316;11.558;2023-12-07T15:32:52;13.20;38.70
30288;DHT22;17103;48.316;11.558;2023-12-07T15:35:18;13.00;38.60
30288;DHT22;17103;48.316;11.558;2023-12-07T15:37:44;12.80;38.20
30288;DHT22;17103;48.316;11.558;2023-12-07T15:40:10;12.60;38.00
30288;DHT22;17103;48.316;11.558;2023-12-07T15:42:39;12.30;37.90
30288;DHT22;17103;48.316;11.558;2023-12-07T15:45:14;12.10;37.80
30288;DHT22;17103;48.316;11.558;2023-12-07T15:47:46;11.90;37.70
30288;DHT22;17103;48.316;11.558;2023-12-07T15:50:12;11.70;37.50
30288;DHT22;17103;48.316;11.558;2023-12-07T15:52:38;11.50;37.50
30288;DHT22;17103;48.316;11.558;2023-12-07T15:55:03;11.30;37.60
30288;DHT22;17103;48.316;11.558;2023-12-07T15:57:29;11.10;37.60
30288;DHT22;17103;48.316;11.558;2023-12-07T15:59:54;10.90;37.60
30288;DHT22;17103;48.316;11.558;2023-12-07T16:02:20;10.70;37.60
30288;DHT22;17103;48.316;11.558;2023-12-07T16:04:45;10.60;37.50